Time;durP1;ratioP1;P1;durP2;ratioP2;P2;SDS_P1;SDS_P2;PMS_P1;PMS_P2;Temp;Humidity;BMP_temperature;BMP_pressure;BME280_temperature;BME280_humidity;BME280_pressure;Samples;Min_cycle;Max_cycle;Signal;HPM_P1;HPM_P2
2022/06/20 00:02:22;;;;;;;9.25;8.45;;;27.40;54.40;;;;;;5086843;28;20195;-81
2022/06/20 00:04:50;;;;;;;9.40;8.57;;;27.40;54.00;;;;;;5084149;28;20744;-81
2022/06/20 00:07:16;;;;;;;10.30;9.40;;;27.30;54.60;;;;;;5070232;28;20220;-81
2022/06/20 00:09:42;;;;;;;13.77;9.45;;;27.40;54.20;;;;;;5099619;28;20171;-82
2022/06/20 00:12:10;;;;;;;9.70;8.90;;;27.40;54.00;;;;;;5085170;28;20198;-83
2022/06/20 00:14:36;;;;;;;9.88;9.05;;;27.40;54.80;;;;;;5089908;28;20200;-80
2022/06/20 00:17:05;;;;;;;10.48;9.55;;;27.40;54.90;;;;;;5088964;28;20209;-82
2022/06/20 00:19:30;;;;;;;11.43;8.95;;;27.40;54.60;;;;;;5088173;28;20179;-83
2022/06/20 00:21:56;;;;;;;9.93;9.05;;;27.40;54.90;;;;;;5088956;28;20190;-80
2022/06/20 00:24:23;;;;;;;9.70;8.73;;;27.10;55.50;;;;;;5088525;28;20211;-80
2022/06/20 00:26:48;;;;;;;10.13;9.18;;;27.10;55.20;;;;;;5098226;28;20182;-81
2022/06/20 00:29:14;;;;;;;9.77;8.93;;;27.20;54.80;;;;;;5085037;28;20237;-80
2022/06/20 00:31:40;;;;;;;10.20;9.20;;;27.20;55.10;;;;;;5086541;28;20187;-80
2022/06/20 00:34:05;;;;;;;9.63;8.73;;;27.10;55.90;;;;;;5049479;28;20215;-80
2022/06/20 00:36:31;;;;;;;10.32;9.43;;;27.10;55.80;;;;;;5070941;28;20207;-79
2022/06/20 00:38:57;;;;;;;9.85;8.93;;;27.20;55.10;;;;;;5095345;28;20187;-80
2022/06/20 00:41:27;;;;;;;10.73;9.65;;;27.10;55.30;;;;;;5068717;28;20720;-80
2022/06/20 00:43:54;;;;;;;9.90;9.00;;;27.00;55.50;;;;;;5087652;28;20215;-80
2022/06/20 00:46:41;;;;;;;10.95;8.70;;;27.20;55.20;;;;;;5086376;28;20222;-80
2022/06/20 00:49:10;;;;;;;9.35;8.60;;;26.80;56.90;;;;;;5083443;28;20179;-80
2022/06/20 00:51:48;;;;;;;10.85;9.65;;;26.60;57.70;;;;;;5086862;28;20186;-80
2022/06/20 00:54:31;;;;;;;11.05;9.85;;;26.30;59.20;;;;;;5074127;28;20227;-80
2022/06/20 00:57:14;;;;;;;11.25;10.15;;;26.20;59.70;;;;;;5076253;28;20187;-82
2022/06/20 00:59:45;;;;;;;11.48;10.38;;;26.40;58.50;;;;;;5083811;28;20174;-80
2022/06/20 01:02:12;;;;;;;10.85;9.75;;;26.40;58.00;;;;;;5083406;28;20650;-81
2022/06/20 01:04:47;;;;;;;10.75;9.75;;;26.50;57.80;;;;;;5082822;28;20207;-80
2022/06/20 01:07:21;;;;;;;10.77;9.82;;;26.20;58.70;;;;;;5077110;28;20183;-83
2022/06/20 01:09:53;;;;;;;11.13;10.20;;;26.20;58.60;;;;;;5088928;28;20236;-79
2022/06/20 01:12:21;;;;;;;11.60;10.55;;;26.10;59.30;;;;;;5083758;28;20267;-80
2022/06/20 01:14:47;;;;;;;10.98;9.88;;;25.80;60.60;;;;;;5085720;28;20203;-82
2022/06/20 01:17:16;;;;;;;10.77;9.70;;;25.90;59.80;;;;;;5086114;28;20198;-80
2022/06/20 01:19:56;;;;;;;10.48;9.55;;;26.10;59.50;;;;;;5082394;28;20176;-81
2022/06/20 01:22:38;;;;;;;10.80;9.90;;;26.30;58.80;;;;;;5088456;28;20205;-81
2022/06/20 01:25:12;;;;;;;10.32;9.60;;;26.40;58.20;;;;;;5072645;28;20195;-82
2022/06/20 01:27:42;;;;;;;10.80;9.77;;;26.50;58.00;;;;;;5087090;28;20499;-80
2022/06/20 01:30:08;;;;;;;10.88;9.98;;;26.40;58.10;;;;;;5069392;28;20222;-82
2022/06/20 01:32:35;;;;;;;12.43;10.32;;;26.40;58.50;;;;;;5088052;28;20198;-80
2022/06/20 01:35:05;;;;;;;11.48;10.48;;;26.20;59.30;;;;;;5090491;28;20203;-82
2022/06/20 01:37:34;;;;;;;10.05;9.30;;;25.90;59.80;;;;;;5091041;28;20255;-78
2022/06/20 01:40:09;;;;;;;11.68;10.75;;;25.90;60.00;;;;;;5091453;28;20178;-78
2022/06/20 01:42:35;;;;;;;10.90;10.00;;;25.80;60.20;;;;;;5095320;28;20186;-80
2022/06/20 01:48:08;;;;;;;11.57;10.40;;;25.80;60.60;;;;;;5094202;28;20270;-80
2022/06/20 01:50:35;;;;;;;11.60;10.55;;;25.90;60.00;;;;;;5095285;28;20186;-79
2022/06/20 01:53:03;;;;;;;11.68;10.68;;;26.00;59.80;;;;;;5083099;28;20222;-82
2022/06/20 01:55:31;;;;;;;13.00;10.52;;;26.10;59.40;;;;;;5081759;28;20283;-82
2022/06/20 01:58:05;;;;;;;11.25;10.35;;;26.20;59.20;;;;;;5092127;28;20187;-80
2022/06/20 02:00:31;;;;;;;11.23;10.25;;;26.10;59.30;;;;;;5086179;28;20175;-80
2022/06/20 02:03:07;;;;;;;11.85;10.73;;;26.20;58.90;;;;;;5088663;28;20171;-83
2022/06/20 02:05:33;;;;;;;11.38;9.75;;;26.40;58.40;;;;;;5087850;28;20226;-81
2022/06/20 02:08:04;;;;;;;11.50;10.50;;;26.20;59.50;;;;;;5073855;28;20199;-80
2022/06/20 02:10:54;;;;;;;12.27;11.13;;;25.80;60.80;;;;;;5086118;28;20164;-82
2022/06/20 02:13:23;;;;;;;11.77;10.85;;;25.30;63.80;;;;;;5070767;28;20214;-80
2022/06/20 02:15:51;;;;;;;12.27;11.10;;;25.10;64.50;;;;;;5078143;28;20222;-80
2022/06/20 02:18:18;;;;;;;12.05;11.07;;;25.00;64.60;;;;;;5097385;28;20247;-81
2022/06/20 02:20:48;;;;;;;12.07;11.07;;;24.70;66.10;;;;;;5087871;28;20187;-80
2022/06/20 02:23:25;;;;;;;11.15;10.35;;;24.70;66.00;;;;;;5069798;28;20206;-81
2022/06/20 02:25:54;;;;;;;11.82;10.77;;;24.80;65.90;;;;;;5090044;28;20187;-81
2022/06/20 02:28:35;;;;;;;12.77;11.65;;;24.80;65.70;;;;;;5083554;28;20682;-82
2022/06/20 02:31:03;;;;;;;11.32;10.35;;;24.40;68.40;;;;;;5095399;28;20187;-80
2022/06/20 02:33:30;;;;;;;12.60;11.55;;;24.10;69.30;;;;;;5074911;28;20198;-80
2022/06/20 02:35:58;;;;;;;13.63;12.43;;;24.00;69.00;;;;;;5098466;28;20206;-79
2022/06/20 02:38:23;;;;;;;12.15;11.02;;;23.70;68.50;;;;;;5083260;28;20180;-81
2022/06/20 02:40:51;;;;;;;11.63;10.52;;;23.60;67.20;;;;;;5088667;28;20311;-80
2022/06/20 02:43:19;;;;;;;11.90;10.90;;;23.70;66.10;;;;;;5084932;28;20188;-80
2022/06/20 02:45:46;;;;;;;11.70;10.60;;;23.70;65.70;;;;;;5086603;28;20336;-80
2022/06/20 02:48:13;;;;;;;11.70;10.60;;;23.70;66.00;;;;;;5066131;28;20191;-80
2022/06/20 02:50:45;;;;;;;11.32;10.32;;;23.50;65.80;;;;;;5072160;28;20194;-80
2022/06/20 02:53:40;;;;;;;11.63;10.55;;;23.50;66.00;;;;;;5085138;28;20183;-81
2022/06/20 02:56:08;;;;;;;12.82;9.90;;;23.50;65.50;;;;;;5072503;28;20203;-82
2022/06/20 02:58:39;;;;;;;10.75;9.48;;;23.50;65.20;;;;;;5084937;28;20194;-84
2022/06/20 03:01:11;;;;;;;10.50;9.50;;;23.40;65.40;;;;;;5085381;28;20174;-80
2022/06/20 03:03:46;;;;;;;11.20;10.13;;;23.40;65.30;;;;;;5082091;28;20305;-79
2022/06/20 03:06:26;;;;;;;10.05;9.00;;;23.30;65.20;;;;;;5083419;28;20190;-80
2022/06/20 03:08:54;;;;;;;16.13;9.40;;;23.30;65.10;;;;;;5060526;28;20186;-80
2022/06/20 03:11:23;;;;;;;9.40;8.50;;;23.40;64.60;;;;;;5081531;28;20187;-81
2022/06/20 03:13:50;;;;;;;9.75;8.93;;;23.50;64.40;;;;;;5091205;28;20203;-82
2022/06/20 03:16:17;;;;;;;9.15;8.32;;;23.50;64.50;;;;;;5083868;28;20214;-80
2022/06/20 03:18:48;;;;;;;12.32;9.02;;;23.60;64.20;;;;;;5068154;28;20183;-79
2022/06/20 03:21:14;;;;;;;9.63;8.63;;;23.60;63.50;;;;;;5083885;28;20524;-81
2022/06/20 03:23:40;;;;;;;11.75;8.95;;;23.50;63.40;;;;;;5087108;28;20189;-80
2022/06/20 03:26:13;;;;;;;10.50;8.73;;;23.40;63.80;;;;;;5091618;28;20211;-81
2022/06/20 03:28:39;;;;;;;9.07;8.38;;;23.30;64.10;;;;;;5094357;28;20183;-81
2022/06/20 03:31:05;;;;;;;9.15;8.27;;;23.30;63.90;;;;;;5083951;28;20194;-81
2022/06/20 03:33:32;;;;;;;8.88;7.97;;;23.20;63.70;;;;;;5080260;28;20197;-84
2022/06/20 03:36:08;;;;;;;9.25;8.32;;;23.20;64.00;;;;;;5083201;28;20218;-82
2022/06/20 03:38:35;;;;;;;9.65;8.20;;;23.20;64.10;;;;;;5086094;28;20240;-83
2022/06/20 03:41:06;;;;;;;9.57;8.13;;;23.40;62.90;;;;;;5084427;28;20250;-83
2022/06/20 03:43:33;;;;;;;10.23;8.18;;;23.20;63.20;;;;;;5090061;28;20615;-82
2022/06/20 03:46:05;;;;;;;8.90;8.00;;;23.10;63.20;;;;;;5071642;28;20213;-80
2022/06/20 03:48:44;;;;;;;12.85;7.47;;;23.00;63.80;;;;;;5055127;28;20263;-83
2022/06/20 03:51:21;;;;;;;8.07;7.43;;;23.00;63.80;;;;;;5060643;28;20183;-79
2022/06/20 03:54:10;;;;;;;9.52;7.80;;;23.00;63.10;;;;;;5067029;28;20248;-82
2022/06/20 03:56:48;;;;;;;7.70;6.70;;;22.90;64.40;;;;;;5085819;28;20195;-83
2022/06/20 03:59:22;;;;;;;7.80;7.18;;;23.00;63.40;;;;;;5076197;28;20206;-82
2022/06/20 04:02:20;;;;;;;7.75;7.05;;;23.00;62.60;;;;;;5079408;28;20191;-83
2022/06/20 04:04:52;;;;;;;8.50;7.85;;;23.10;62.00;;;;;;5085929;28;20219;-83
2022/06/20 04:07:28;;;;;;;10.73;7.28;;;23.30;60.50;;;;;;5080612;28;20191;-81
2022/06/20 04:12:58;;;;;;;15.63;8.50;;;23.10;60.70;;;;;;5084726;28;20209;-82
2022/06/20 04:15:34;;;;;;;7.88;7.15;;;23.10;60.90;;;;;;5081719;28;20230;-81
2022/06/20 04:18:27;;;;;;;8.88;7.47;;;23.20;60.10;;;;;;5080318;28;20650;-83
2022/06/20 04:21:05;;;;;;;10.50;7.35;;;23.20;59.90;;;;;;5083267;28;20180;-80
2022/06/20 04:23:49;;;;;;;9.02;7.40;;;23.30;60.20;;;;;;5084005;28;20182;-82
2022/06/20 04:26:20;;;;;;;8.70;7.80;;;23.60;59.00;;;;;;5080899;28;20279;-79
2022/06/20 04:29:29;;;;;;;7.97;7.20;;;23.70;58.80;;;;;;5068496;28;20207;-81
2022/06/20 04:32:17;;;;;;;7.70;6.90;;;23.60;58.90;;;;;;5076411;28;20681;-82
2022/06/20 04:34:53;;;;;;;8.13;7.30;;;23.60;59.00;;;;;;5076581;28;20212;-81
2022/06/20 04:37:38;;;;;;;8.43;7.35;;;23.80;58.70;;;;;;5073342;28;20184;-81
2022/06/20 04:40:19;;;;;;;8.02;7.22;;;23.70;59.00;;;;;;5065958;28;20701;-82
2022/06/20 04:42:56;;;;;;;8.10;7.28;;;23.80;58.20;;;;;;5078302;28;20663;-81
2022/06/20 04:45:47;;;;;;;8.43;7.53;;;23.80;58.40;;;;;;5088414;28;20230;-81
2022/06/20 04:48:15;;;;;;;7.93;6.75;;;24.10;58.20;;;;;;5072729;28;20184;-81
2022/06/20 04:50:57;;;;;;;7.63;6.93;;;24.40;56.90;;;;;;5099619;28;20191;-81
2022/06/20 04:53:27;;;;;;;8.23;7.32;;;24.30;56.50;;;;;;5084628;28;20179;-80
2022/06/20 04:56:04;;;;;;;8.32;7.47;;;24.40;56.10;;;;;;5062189;28;20188;-81
2022/06/20 04:58:34;;;;;;;9.20;7.55;;;24.50;55.40;;;;;;5088703;28;20634;-80
2022/06/20 05:01:02;;;;;;;7.93;7.25;;;24.40;56.10;;;;;;5084442;28;20194;-80
2022/06/20 05:03:34;;;;;;;8.07;7.38;;;24.60;55.70;;;;;;5084271;28;20254;-80
2022/06/20 05:06:02;;;;;;;10.50;7.38;;;24.60;56.00;;;;;;5090294;28;20179;-78
2022/06/20 05:08:51;;;;;;;9.85;8.13;;;24.70;55.10;;;;;;5086901;28;20183;-79
2022/06/20 05:11:28;;;;;;;8.65;7.85;;;24.80;55.30;;;;;;5084278;28;20171;-81
2022/06/20 05:14:24;;;;;;;8.65;7.93;;;24.80;55.70;;;;;;5090951;28;20203;-80
2022/06/20 05:16:52;;;;;;;8.45;7.80;;;24.60;56.50;;;;;;5094031;28;20529;-80
2022/06/20 05:19:36;;;;;;;7.93;7.13;;;24.60;56.20;;;;;;5091169;28;20167;-81
2022/06/20 05:22:09;;;;;;;10.63;7.60;;;24.60;56.20;;;;;;5088149;28;20602;-80
2022/06/20 05:24:38;;;;;;;8.85;7.85;;;24.50;56.00;;;;;;5094750;28;20210;-82
2022/06/20 05:27:27;;;;;;;8.50;7.20;;;24.30;57.90;;;;;;5082361;28;20184;-81
2022/06/20 05:29:56;;;;;;;8.43;7.28;;;24.40;58.70;;;;;;5084871;28;20712;-80
2022/06/20 05:32:42;;;;;;;8.35;7.53;;;24.40;59.50;;;;;;5092992;28;20185;-80
2022/06/20 05:35:20;;;;;;;8.00;7.30;;;24.40;59.10;;;;;;5097284;28;20219;-80
2022/06/20 05:37:52;;;;;;;8.18;7.38;;;24.60;58.20;;;;;;5093575;28;20190;-79
2022/06/20 05:40:28;;;;;;;8.65;7.82;;;24.50;56.70;;;;;;5084917;28;20194;-79
2022/06/20 05:42:54;;;;;;;13.13;8.40;;;24.60;57.10;;;;;;5088913;28;20823;-80
2022/06/20 05:45:25;;;;;;;13.73;7.30;;;24.70;57.80;;;;;;5092884;28;20253;-80
2022/06/20 05:47:53;;;;;;;8.80;7.30;;;24.80;58.60;;;;;;5093542;28;20179;-80
2022/06/20 05:50:34;;;;;;;8.75;7.90;;;24.90;56.50;;;;;;5084575;28;20215;-79
2022/06/20 05:53:03;;;;;;;10.13;7.80;;;24.80;56.30;;;;;;5080622;28;20215;-80
2022/06/20 05:55:56;;;;;;;8.55;7.82;;;24.70;55.60;;;;;;5089794;28;20211;-80
2022/06/20 05:58:35;;;;;;;8.32;7.32;;;24.50;58.70;;;;;;5081856;28;20204;-80
2022/06/20 06:01:07;;;;;;;12.75;7.25;;;24.50;60.50;;;;;;5074311;28;20187;-82
2022/06/20 06:04:04;;;;;;;8.00;7.10;;;24.50;59.50;;;;;;5057156;28;20247;-80
2022/06/20 06:06:45;;;;;;;9.20;6.82;;;24.30;61.20;;;;;;5080636;28;20191;-80
2022/06/20 06:09:41;;;;;;;7.63;7.00;;;24.50;60.80;;;;;;5076841;28;20253;-80
2022/06/20 06:12:13;;;;;;;9.90;8.10;;;24.50;59.10;;;;;;5078602;28;20214;-81
2022/06/20 06:15:06;;;;;;;7.72;7.10;;;24.50;60.20;;;;;;5083678;28;20219;-81
2022/06/20 06:17:40;;;;;;;10.25;7.40;;;24.60;59.60;;;;;;5082458;28;20261;-81
2022/06/20 06:20:27;;;;;;;11.18;7.47;;;24.60;60.30;;;;;;5085357;28;20176;-82
2022/06/20 06:23:02;;;;;;;7.97;7.35;;;24.60;59.90;;;;;;5087357;28;20198;-80
2022/06/20 06:25:42;;;;;;;10.90;7.93;;;24.60;60.40;;;;;;5084503;28;20211;-81
2022/06/20 06:28:16;;;;;;;8.52;7.18;;;24.70;60.80;;;;;;5088485;28;20187;-80
2022/06/20 06:31:05;;;;;;;8.73;7.10;;;24.70;61.00;;;;;;5069110;28;20580;-81
2022/06/20 06:33:43;;;;;;;9.60;7.43;;;24.80;60.70;;;;;;5079383;28;20371;-82
2022/06/20 06:36:15;;;;;;;7.68;6.97;;;24.70;60.00;;;;;;5089298;28;20191;-81
2022/06/20 06:38:52;;;;;;;10.57;8.20;;;24.70;59.90;;;;;;5083513;28;20322;-82
2022/06/20 06:41:25;;;;;;;8.02;7.28;;;24.70;60.10;;;;;;5088790;28;20186;-83
2022/06/20 06:43:54;;;;;;;8.32;7.47;;;24.70;59.70;;;;;;5070455;28;20219;-80
2022/06/20 06:46:33;;;;;;;12.48;7.22;;;24.80;59.60;;;;;;5082648;28;20175;-82
2022/06/20 06:49:41;;;;;;;7.25;6.63;;;24.90;59.30;;;;;;5090373;28;20264;-80
2022/06/20 06:52:40;;;;;;;11.27;7.28;;;24.80;57.30;;;;;;5065463;28;20192;-84
2022/06/20 06:55:44;;;;;;;7.68;7.00;;;24.70;56.90;;;;;;5067593;28;20215;-79
2022/06/20 06:58:13;;;;;;;7.80;7.13;;;24.60;57.00;;;;;;5081788;28;20191;-81
2022/06/20 07:00:43;;;;;;;10.25;7.15;;;24.60;58.00;;;;;;5083261;28;20187;-81
2022/06/20 07:03:15;;;;;;;9.00;7.68;;;24.70;58.00;;;;;;5096062;28;20182;-81
2022/06/20 07:05:49;;;;;;;8.07;7.20;;;24.90;57.00;;;;;;5093464;28;20221;-80
2022/06/20 07:08:23;;;;;;;8.38;7.32;;;25.10;55.90;;;;;;5084746;28;20179;-80
2022/06/20 07:11:15;;;;;;;9.95;7.00;;;25.10;54.80;;;;;;5082969;28;20655;-82
2022/06/20 07:14:05;;;;;;;9.40;7.97;;;25.10;54.90;;;;;;5080731;28;20241;-81
2022/06/20 07:16:59;;;;;;;8.48;7.72;;;25.30;54.50;;;;;;5087930;28;20414;-80
2022/06/20 07:19:26;;;;;;;8.60;7.57;;;25.30;54.20;;;;;;5085302;28;20195;-82
2022/06/20 07:21:54;;;;;;;8.70;7.95;;;25.60;54.00;;;;;;5088721;28;20213;-78
2022/06/20 07:24:25;;;;;;;10.18;9.07;;;25.90;53.60;;;;;;5081733;28;20206;-78
2022/06/20 07:27:00;;;;;;;9.25;8.35;;;25.90;52.50;;;;;;5081274;28;20226;-80
2022/06/20 07:29:32;;;;;;;9.32;8.18;;;26.10;52.50;;;;;;5081681;28;20180;-79
2022/06/20 07:32:09;;;;;;;9.25;8.45;;;26.10;52.40;;;;;;5082452;28;20458;-78
2022/06/20 07:34:44;;;;;;;13.75;9.73;;;26.10;52.40;;;;;;5080892;28;20268;-80
2022/06/20 07:37:25;;;;;;;10.05;8.77;;;25.90;52.50;;;;;;5084389;28;20186;-79
2022/06/20 07:40:13;;;;;;;8.90;8.15;;;25.90;53.10;;;;;;5088517;28;20168;-79
2022/06/20 07:42:58;;;;;;;9.50;8.52;;;25.80;53.90;;;;;;5086966;28;20180;-80
2022/06/20 07:45:41;;;;;;;13.52;8.98;;;25.90;53.00;;;;;;5094323;28;20230;-77
2022/06/20 07:48:07;;;;;;;10.15;8.63;;;26.10;53.20;;;;;;5087973;28;20256;-80
2022/06/20 07:50:55;;;;;;;9.10;8.30;;;26.10;52.60;;;;;;5085653;28;20183;-81
2022/06/20 07:53:33;;;;;;;10.13;9.10;;;26.00;53.40;;;;;;5087614;28;20187;-82
2022/06/20 07:56:05;;;;;;;10.30;9.38;;;25.90;52.90;;;;;;5086272;28;20258;-80
2022/06/20 07:58:37;;;;;;;10.57;9.45;;;26.00;53.40;;;;;;5093363;28;20179;-80
2022/06/20 08:01:22;;;;;;;10.35;9.45;;;26.30;52.10;;;;;;5091342;28;20282;-81
2022/06/20 08:03:56;;;;;;;9.25;8.45;;;26.60;51.60;;;;;;5088645;28;20192;-81
2022/06/20 08:06:28;;;;;;;11.40;10.25;;;26.70;51.60;;;;;;5084110;28;20188;-82
2022/06/20 08:09:00;;;;;;;11.73;10.50;;;26.30;52.40;;;;;;5081965;28;20205;-79
2022/06/20 08:11:46;;;;;;;11.00;10.02;;;26.30;52.90;;;;;;5090223;28;20222;-79
2022/06/20 08:14:29;;;;;;;11.80;10.50;;;26.60;53.10;;;;;;5092219;28;20203;-80
2022/06/20 08:16:58;;;;;;;12.00;10.88;;;26.80;52.20;;;;;;5085422;28;20242;-79
2022/06/20 08:19:25;;;;;;;12.18;11.10;;;26.60;53.70;;;;;;5079366;28;20194;-80
2022/06/20 08:22:02;;;;;;;12.02;10.93;;;26.40;54.90;;;;;;5081686;28;20657;-79
2022/06/20 08:24:47;;;;;;;11.30;10.25;;;26.60;54.70;;;;;;5072906;28;20206;-79
2022/06/20 08:27:33;;;;;;;12.38;11.38;;;26.70;54.20;;;;;;5090550;28;20203;-79
2022/06/20 08:30:12;;;;;;;11.60;10.55;;;26.70;55.00;;;;;;5082830;28;20179;-80
2022/06/20 08:32:55;;;;;;;11.68;10.63;;;26.90;54.40;;;;;;5092486;28;20187;-79
2022/06/20 08:35:42;;;;;;;12.07;10.93;;;26.90;53.60;;;;;;5087539;28;20206;-79
2022/06/20 08:38:33;;;;;;;11.27;10.38;;;26.80;54.50;;;;;;5090510;28;20178;-80
2022/06/20 08:41:30;;;;;;;15.00;11.88;;;27.00;55.40;;;;;;5091663;28;20270;-79
2022/06/20 08:43:56;;;;;;;11.85;10.70;;;27.00;55.20;;;;;;5086024;28;20211;-79
2022/06/20 08:46:50;;;;;;;12.05;10.77;;;26.90;55.40;;;;;;5092458;28;20198;-79
2022/06/20 08:49:23;;;;;;;12.15;11.07;;;26.70;55.90;;;;;;5091095;28;20211;-80
2022/06/20 08:52:23;;;;;;;11.65;10.43;;;26.40;57.00;;;;;;5084484;28;20288;-79
2022/06/20 08:55:25;;;;;;;13.55;10.55;;;26.30;57.30;;;;;;5085204;28;21267;-79
2022/06/20 08:57:57;;;;;;;10.90;9.95;;;26.40;56.80;;;;;;5091787;28;20222;-81
2022/06/20 09:00:46;;;;;;;12.10;10.90;;;26.60;56.70;;;;;;5082800;28;20263;-79
2022/06/20 09:03:45;;;;;;;11.95;9.75;;;26.50;56.70;;;;;;5086614;28;20206;-79
2022/06/20 09:06:26;;;;;;;11.73;10.35;;;26.70;56.00;;;;;;5069995;28;20175;-78
2022/06/20 09:08:54;;;;;;;15.90;10.85;;;26.80;56.00;;;;;;5092118;28;20198;-80
2022/06/20 09:11:45;;;;;;;11.23;10.10;;;27.00;54.90;;;;;;5081612;28;20218;-79
2022/06/20 09:14:37;;;;;;;11.60;9.82;;;27.20;53.80;;;;;;5083290;28;20211;-78
2022/06/20 09:17:08;;;;;;;11.65;9.77;;;27.00;55.40;;;;;;5086892;28;20215;-79
2022/06/20 09:20:09;;;;;;;12.75;10.27;;;26.90;54.70;;;;;;5082641;28;20198;-80
2022/06/20 09:22:58;;;;;;;13.85;10.63;;;26.70;55.50;;;;;;5086547;28;20206;-79
2022/06/20 09:25:36;;;;;;;13.30;10.32;;;26.50;55.50;;;;;;5081730;28;20207;-80
2022/06/20 09:28:34;;;;;;;13.07;9.40;;;26.60;56.30;;;;;;5085402;28;20190;-79
2022/06/20 09:31:17;;;;;;;11.80;10.70;;;26.60;55.20;;;;;;5078914;28;20187;-80
2022/06/20 09:34:01;;;;;;;14.40;11.00;;;26.40;56.50;;;;;;5082245;28;20207;-79
2022/06/20 09:37:05;;;;;;;15.48;10.75;;;26.40;56.30;;;;;;5081781;28;20289;-81
2022/06/20 09:40:06;;;;;;;12.68;10.93;;;26.50;56.40;;;;;;5088150;28;20183;-80
2022/06/20 09:42:48;;;;;;;12.23;11.02;;;26.70;57.00;;;;;;4977068;28;20296;-82
2022/06/20 09:45:45;;;;;;;12.93;10.77;;;26.80;56.30;;;;;;5069282;28;20243;-81
2022/06/20 09:48:18;;;;;;;11.23;10.05;;;26.90;55.40;;;;;;5093699;28;20179;-81
2022/06/20 09:50:50;;;;;;;12.40;11.07;;;27.00;55.30;;;;;;5096511;28;20268;-81
2022/06/20 09:53:32;;;;;;;12.43;11.25;;;27.00;55.40;;;;;;5091643;28;20184;-81
2022/06/20 09:56:03;;;;;;;10.88;9.70;;;27.10;55.60;;;;;;5087083;28;20218;-82
2022/06/20 09:58:51;;;;;;;11.80;10.60;;;27.50;56.00;;;;;;5087459;28;20591;-80
2022/06/20 10:01:44;;;;;;;11.40;10.32;;;27.60;54.60;;;;;;5087579;28;20183;-81
2022/06/20 10:04:49;;;;;;;11.27;10.27;;;27.80;53.10;;;;;;5070645;28;20265;-83
2022/06/20 10:07:39;;;;;;;11.32;10.02;;;27.70;53.50;;;;;;5083270;28;20200;-81
2022/06/20 10:10:23;;;;;;;12.48;10.73;;;27.80;53.30;;;;;;5091634;28;20261;-80
2022/06/20 10:13:18;;;;;;;13.07;9.85;;;28.10;53.60;;;;;;5067292;28;20179;-80
2022/06/20 10:16:12;;;;;;;12.90;11.18;;;28.20;53.60;;;;;;5082244;28;20203;-80
2022/06/20 10:19:08;;;;;;;12.93;10.57;;;28.40;51.90;;;;;;5092211;28;20223;-79
2022/06/20 10:21:53;;;;;;;10.70;9.63;;;28.10;52.80;;;;;;5090928;28;20179;-80
2022/06/20 10:24:34;;;;;;;13.15;10.23;;;28.20;52.70;;;;;;5090687;28;20275;-80
2022/06/20 10:27:41;;;;;;;11.30;9.75;;;28.00;53.60;;;;;;5081659;28;20194;-80
2022/06/20 10:30:20;;;;;;;12.65;11.48;;;28.10;53.40;;;;;;5058747;28;20278;-80
2022/06/20 10:33:24;;;;;;;11.13;10.20;;;28.20;51.90;;;;;;5084071;28;20542;-82
2022/06/20 10:36:14;;;;;;;9.90;8.88;;;28.10;51.80;;;;;;5067075;28;20319;-82
2022/06/20 10:38:52;;;;;;;9.85;8.95;;;28.20;51.70;;;;;;5091011;28;20187;-78
2022/06/20 10:41:41;;;;;;;11.07;9.10;;;28.60;50.50;;;;;;5092273;28;20184;-80
2022/06/20 10:44:34;;;;;;;9.15;8.25;;;28.50;49.80;;;;;;5088082;28;20229;-81
2022/06/20 10:47:30;;;;;;;8.95;8.25;;;29.00;50.00;;;;;;5085259;28;20210;-81
2022/06/20 10:50:36;;;;;;;9.57;8.63;;;29.30;47.20;;;;;;5085466;28;20172;-81
2022/06/20 10:53:39;;;;;;;9.50;8.70;;;29.10;49.20;;;;;;5087336;28;20183;-80
2022/06/20 10:56:30;;;;;;;9.20;8.60;;;28.60;49.50;;;;;;5074292;28;20205;-79
2022/06/20 10:59:13;;;;;;;8.43;7.93;;;28.00;50.20;;;;;;5081385;28;20175;-80
2022/06/20 11:01:51;;;;;;;8.50;7.90;;;28.30;47.70;;;;;;5089883;28;20179;-80
2022/06/20 11:04:54;;;;;;;8.43;7.68;;;28.50;47.70;;;;;;5083269;28;20325;-81
2022/06/20 11:07:27;;;;;;;8.25;7.65;;;28.90;46.30;;;;;;5080009;28;20195;-82
2022/06/20 11:10:25;;;;;;;7.75;7.15;;;29.20;44.70;;;;;;5084990;28;20198;-82
2022/06/20 11:13:30;;;;;;;8.35;7.80;;;28.90;43.50;;;;;;5081171;28;20167;-80
2022/06/20 11:16:08;;;;;;;8.65;7.95;;;29.30;44.20;;;;;;5083263;28;20231;-80
2022/06/20 11:19:19;;;;;;;7.88;7.38;;;29.60;43.30;;;;;;5080704;28;20184;-80
2022/06/20 11:22:03;;;;;;;9.00;8.15;;;29.90;43.30;;;;;;5085352;28;20204;-82
2022/06/20 11:24:58;;;;;;;8.73;8.05;;;29.70;44.00;;;;;;5085423;28;20213;-80
2022/06/20 11:27:36;;;;;;;8.90;8.35;;;29.50;44.60;;;;;;5083147;28;20744;-79
2022/06/20 11:30:11;;;;;;;9.73;9.10;;;29.30;45.50;;;;;;5084057;28;20175;-79
2022/06/20 11:33:04;;;;;;;9.70;8.93;;;29.10;47.60;;;;;;5079299;28;20225;-79
2022/06/20 11:35:45;;;;;;;10.90;9.85;;;29.00;48.30;;;;;;5085817;28;20228;-81
2022/06/20 11:38:32;;;;;;;9.10;8.43;;;29.20;47.70;;;;;;5084976;28;20589;-80
2022/06/20 11:41:09;;;;;;;11.30;10.07;;;29.30;48.20;;;;;;5080792;28;20354;-81
2022/06/20 11:43:41;;;;;;;10.40;9.70;;;28.90;49.50;;;;;;5093132;28;20186;-81
2022/06/20 11:46:18;;;;;;;11.27;10.48;;;28.80;49.90;;;;;;5091265;28;20203;-79
2022/06/20 11:49:04;;;;;;;11.35;10.32;;;28.40;51.40;;;;;;5089379;28;20588;-82
2022/06/20 11:51:47;;;;;;;11.45;10.55;;;28.20;52.00;;;;;;5080525;28;20258;-81
2022/06/20 11:54:31;;;;;;;12.15;11.23;;;28.00;53.50;;;;;;5089652;28;20222;-81
2022/06/20 11:57:06;;;;;;;12.07;10.93;;;27.90;54.50;;;;;;5081493;28;20199;-79
2022/06/20 11:59:37;;;;;;;12.43;11.18;;;27.60;60.90;;;;;;5081692;28;20175;-80
2022/06/20 12:02:42;;;;;;;10.20;9.40;;;27.50;62.10;;;;;;5079384;28;20277;-81
2022/06/20 12:05:32;;;;;;;10.32;9.52;;;27.10;64.80;;;;;;5083156;28;20256;-82
2022/06/20 12:08:22;;;;;;;10.52;9.60;;;27.30;64.60;;;;;;5083971;28;20226;-80
2022/06/20 12:11:23;;;;;;;9.63;8.70;;;27.50;60.00;;;;;;5086665;28;20194;-81
2022/06/20 12:14:22;;;;;;;9.38;8.45;;;27.60;59.10;;;;;;5074490;28;20239;-82
2022/06/20 12:17:00;;;;;;;9.35;8.43;;;27.70;58.60;;;;;;5076758;28;20214;-81
2022/06/20 12:25:36;;;;;;;9.13;8.32;;;27.10;60.40;;;;;;5099176;28;20248;-81
2022/06/20 12:28:18;;;;;;;8.55;7.95;;;27.10;60.60;;;;;;5090923;28;20175;-81
2022/06/20 12:30:51;;;;;;;9.07;8.40;;;27.40;59.10;;;;;;5089468;28;20176;-81
2022/06/20 12:33:17;;;;;;;8.45;7.72;;;27.50;58.00;;;;;;5093691;28;20187;-83
2022/06/20 12:35:48;;;;;;;9.07;8.27;;;27.20;58.60;;;;;;5082522;28;20277;-82
2022/06/20 12:38:25;;;;;;;11.65;9.18;;;27.10;59.70;;;;;;5088279;28;20195;-81
2022/06/20 12:40:56;;;;;;;8.20;7.63;;;27.00;58.90;;;;;;5071440;28;20913;-79
2022/06/20 12:43:32;;;;;;;9.18;8.38;;;26.70;59.50;;;;;;5077209;28;20249;-80
2022/06/20 12:46:19;;;;;;;8.15;7.60;;;26.60;58.80;;;;;;5093651;28;20237;-82
2022/06/20 12:48:57;;;;;;;8.35;7.65;;;26.40;59.60;;;;;;5097573;28;20222;-79
2022/06/20 12:51:46;;;;;;;8.15;7.40;;;26.00;60.00;;;;;;5082637;28;20195;-81
2022/06/20 12:54:11;;;;;;;7.88;7.13;;;25.50;61.30;;;;;;5086252;28;20226;-79
2022/06/20 12:56:46;;;;;;;10.98;7.82;;;25.40;61.10;;;;;;5094185;28;20215;-80
2022/06/20 12:59:33;;;;;;;8.02;7.53;;;25.30;62.00;;;;;;5093847;28;20182;-80
2022/06/20 13:02:24;;;;;;;8.07;7.57;;;25.50;60.40;;;;;;5087171;28;20176;-79
2022/06/20 13:05:20;;;;;;;8.00;7.45;;;25.30;60.20;;;;;;5087349;28;20207;-80
2022/06/20 13:07:53;;;;;;;7.78;7.28;;;25.30;59.90;;;;;;5084223;28;20176;-81
2022/06/20 13:10:30;;;;;;;7.90;7.22;;;25.30;60.10;;;;;;5073822;28;20819;-79
2022/06/20 13:13:14;;;;;;;7.80;7.22;;;25.20;60.10;;;;;;5098750;28;20538;-79
2022/06/20 13:15:49;;;;;;;8.25;7.57;;;25.40;59.50;;;;;;5089738;28;20198;-80
2022/06/20 13:18:39;;;;;;;7.93;7.43;;;25.40;59.10;;;;;;5091623;28;20178;-80
2022/06/20 13:21:16;;;;;;;8.10;7.68;;;25.50;59.00;;;;;;5080850;28;20188;-80
2022/06/20 13:24:19;;;;;;;7.97;7.47;;;26.10;57.20;;;;;;5097340;28;20179;-81
2022/06/20 13:26:50;;;;;;;7.82;7.32;;;26.30;55.90;;;;;;5083033;28;20247;-80
2022/06/20 13:29:37;;;;;;;7.78;7.18;;;26.10;56.90;;;;;;5088585;28;20273;-80
2022/06/20 13:32:20;;;;;;;7.50;7.10;;;25.90;56.30;;;;;;5087389;28;20184;-80
2022/06/20 13:34:59;;;;;;;8.82;7.68;;;25.80;57.00;;;;;;5088464;28;20241;-80
2022/06/20 13:37:34;;;;;;;7.88;7.28;;;25.70;57.00;;;;;;5097919;28;20186;-79
2022/06/20 13:40:17;;;;;;;8.45;7.72;;;25.80;56.90;;;;;;5087220;28;20183;-81
2022/06/20 13:43:05;;;;;;;8.57;7.93;;;25.60;57.80;;;;;;5089230;28;20180;-80
2022/06/20 13:46:01;;;;;;;7.65;7.18;;;25.80;56.90;;;;;;5083089;28;20222;-81
2022/06/20 13:48:45;;;;;;;7.82;7.32;;;26.40;55.60;;;;;;5075030;28;20226;-80
2022/06/20 13:51:19;;;;;;;7.32;6.82;;;26.40;54.30;;;;;;5095229;28;20175;-79